Time;durP1;ratioP1;P1;durP2;ratioP2;P2;SDS_P1;SDS_P2;PMS_P1;PMS_P2;Temp;Humidity;BMP_temperature;BMP_pressure;BME280_temperature;BME280_humidity;BME280_pressure;Samples;Min_cycle;Max_cycle;Signal;HPM_P1;HPM_P2
2021/11/13 00:00:29;;;;;;;33.20;18.70;;;;;;;1.49;93.85;96927.06;105160;1310;28191;-83
2021/11/13 00:03:17;;;;;;;31.90;18.20;;;;;;;1.52;94.06;96923.93;105139;1312;26580;-84
2021/11/13 00:05:48;;;;;;;30.10;18.80;;;;;;;1.44;93.89;96926.33;105115;1312;27712;-84
2021/11/13 00:08:19;;;;;;;31.10;18.20;;;;;;;1.35;93.82;96928.36;105170;1314;27035;-84
2021/11/13 00:10:50;;;;;;;28.40;18.50;;;;;;;1.27;93.86;96925.64;104967;1312;25760;-85
2021/11/13 00:13:23;;;;;;;32.30;19.80;;;;;;;1.25;94.02;96924.56;105211;1313;25771;-85
2021/11/13 00:15:55;;;;;;;31.50;17.40;;;;;;;1.29;93.88;96922.95;105251;1312;27460;-85
2021/11/13 00:18:26;;;;;;;31.70;19.90;;;;;;;1.30;93.83;96918.60;105186;1314;28986;-85
2021/11/13 00:20:56;;;;;;;30.60;20.20;;;;;;;1.34;93.97;96912.34;105272;1312;24216;-85
2021/11/13 00:23:27;;;;;;;35.80;21.40;;;;;;;1.37;93.99;96905.96;105266;1313;28402;-85
2021/11/13 00:25:58;;;;;;;33.20;20.30;;;;;;;1.41;93.85;96905.42;105141;1315;27524;-84
2021/11/13 00:28:29;;;;;;;32.40;20.30;;;;;;;1.41;93.77;96900.48;105213;1309;27234;-84
2021/11/13 00:31:00;;;;;;;30.60;19.40;;;;;;;1.41;93.65;96902.20;105171;1314;28268;-84
2021/11/13 00:33:31;;;;;;;31.20;19.20;;;;;;;1.39;93.40;96896.21;105107;1313;27133;-84
2021/11/13 00:36:01;;;;;;;31.90;19.50;;;;;;;1.39;93.45;96893.23;105132;1310;27937;-84
2021/11/13 00:38:32;;;;;;;31.60;19.20;;;;;;;1.42;93.50;96888.17;105256;1312;26990;-84
2021/11/13 00:41:03;;;;;;;33.80;20.10;;;;;;;1.45;93.34;96888.48;105227;1315;26797;-85
2021/11/13 00:43:35;;;;;;;32.00;19.00;;;;;;;1.49;93.44;96890.43;105257;1310;25200;-84
2021/11/13 00:46:05;;;;;;;29.90;19.10;;;;;;;1.54;93.34;96894.74;105194;1312;25061;-85
2021/11/13 00:48:36;;;;;;;31.50;19.00;;;;;;;1.54;93.21;96896.91;105116;1314;27707;-85
2021/11/13 00:51:07;;;;;;;31.80;19.00;;;;;;;1.56;92.93;96899.20;105100;1318;24954;-85
2021/11/13 00:53:37;;;;;;;27.80;17.20;;;;;;;1.57;92.85;96898.83;105155;1314;27975;-85
2021/11/13 00:56:08;;;;;;;28.20;17.80;;;;;;;1.57;92.68;96891.04;105199;1314;61627;-85
2021/11/13 00:58:39;;;;;;;26.70;17.20;;;;;;;1.56;92.43;96893.17;105161;1314;26299;-85
2021/11/13 01:01:10;;;;;;;30.80;18.70;;;;;;;1.53;92.26;96890.48;105199;1309;27383;-84
2021/11/13 01:03:40;;;;;;;29.80;18.60;;;;;;;1.46;92.22;96885.29;105149;1313;26719;-85
2021/11/13 01:06:12;;;;;;;32.10;18.70;;;;;;;1.39;92.19;96887.52;105145;1312;25898;-84
2021/11/13 01:08:47;;;;;;;29.80;18.20;;;;;;;1.21;91.61;96886.95;105053;1312;26730;-84
2021/11/13 01:11:19;;;;;;;32.30;18.90;;;;;;;1.02;91.64;96889.49;105145;1309;28309;-83
2021/11/13 01:13:50;;;;;;;31.70;17.60;;;;;;;0.84;91.78;96892.16;105181;1312;26247;-84
2021/11/13 01:16:21;;;;;;;32.10;17.00;;;;;;;0.70;92.12;96889.99;105156;1314;26894;-84
2021/11/13 01:18:53;;;;;;;32.40;18.30;;;;;;;0.58;92.45;96894.10;105190;1312;28669;-84
2021/11/13 01:21:24;;;;;;;33.80;17.70;;;;;;;0.51;92.70;96890.96;105288;1309;24319;-84
2021/11/13 01:23:55;;;;;;;29.70;18.20;;;;;;;0.47;93.12;96890.23;105196;1312;24817;-84
2021/11/13 01:26:26;;;;;;;26.20;17.00;;;;;;;0.44;93.28;96888.11;105323;1312;26251;-84
2021/11/13 01:28:57;;;;;;;27.50;17.80;;;;;;;0.39;93.58;96883.50;105313;1309;28443;-84
2021/11/13 01:31:27;;;;;;;29.00;17.80;;;;;;;0.34;93.83;96880.04;105306;1314;25423;-83
2021/11/13 01:33:58;;;;;;;26.40;17.20;;;;;;;0.30;93.92;96876.05;105232;1310;27018;-82
2021/11/13 01:36:29;;;;;;;30.70;17.90;;;;;;;0.29;94.38;96876.77;105247;1310;25839;-83
2021/11/13 01:39:00;;;;;;;31.20;18.10;;;;;;;0.29;94.32;96876.62;105275;1313;26114;-84
2021/11/13 01:41:32;;;;;;;25.80;16.40;;;;;;;0.26;94.23;96876.09;105244;1310;28188;-83
2021/11/13 01:44:05;;;;;;;30.70;19.10;;;;;;;0.28;94.42;96875.13;105253;1314;28629;-83
2021/11/13 01:46:37;;;;;;;27.30;17.90;;;;;;;0.36;94.60;96868.04;105143;1316;29624;-84
2021/11/13 01:49:09;;;;;;;25.50;17.60;;;;;;;0.41;94.75;96859.77;105156;1318;27462;-84
2021/11/13 01:51:44;;;;;;;27.70;17.30;;;;;;;0.45;94.65;96857.21;105241;1313;26625;-84
2021/11/13 01:54:15;;;;;;;29.90;19.40;;;;;;;0.48;94.88;96864.27;105282;1313;25736;-84
2021/11/13 01:56:49;;;;;;;29.50;18.20;;;;;;;0.47;94.71;96860.02;105152;1316;28190;-84
2021/11/13 01:59:24;;;;;;;29.10;18.00;;;;;;;0.45;94.39;96858.34;105272;1309;28473;-84
2021/11/13 02:01:55;;;;;;;25.80;16.70;;;;;;;0.44;94.41;96856.42;105237;1316;30657;-84
2021/11/13 02:04:26;;;;;;;30.90;17.90;;;;;;;0.42;94.43;96853.53;105252;1314;24608;-84
2021/11/13 02:06:56;;;;;;;28.70;18.50;;;;;;;0.44;94.63;96851.04;105312;1312;27858;-84
2021/11/13 02:09:28;;;;;;;26.80;16.90;;;;;;;0.47;94.09;96850.50;105271;1314;28154;-84
2021/11/13 02:11:58;;;;;;;24.20;16.10;;;;;;;0.49;94.24;96845.42;104974;1316;27584;-83
2021/11/13 02:14:31;;;;;;;27.20;17.00;;;;;;;0.51;93.99;96840.00;105191;1312;25680;-84
2021/11/13 02:17:02;;;;;;;27.60;17.30;;;;;;;0.51;93.92;96839.48;105198;1312;27615;-84
2021/11/13 02:19:32;;;;;;;22.80;15.00;;;;;;;0.48;93.83;96837.73;105252;1309;26196;-84
2021/11/13 02:22:03;;;;;;;23.30;15.40;;;;;;;0.46;93.57;96832.29;105199;1314;27846;-86
2021/11/13 02:24:34;;;;;;;26.80;15.50;;;;;;;0.43;93.41;96829.50;105173;1312;26308;-85
2021/11/13 02:27:05;;;;;;;22.50;16.50;;;;;;;0.44;93.61;96827.20;105044;1313;26715;-84
2021/11/13 02:29:36;;;;;;;27.70;17.60;;;;;;;0.48;93.62;96827.83;105284;1310;27282;-86
2021/11/13 02:32:08;;;;;;;28.90;18.20;;;;;;;0.51;93.57;96828.01;105234;1309;31146;-87
2021/11/13 02:34:39;;;;;;;24.50;15.60;;;;;;;0.51;93.35;96823.83;104997;1315;25688;-86
2021/11/13 02:37:10;;;;;;;25.40;15.90;;;;;;;0.47;93.42;96817.31;105146;1313;28351;-84
2021/11/13 02:39:42;;;;;;;23.20;15.50;;;;;;;0.33;93.07;96810.25;105237;1309;28750;-84
2021/11/13 02:42:13;;;;;;;24.70;16.70;;;;;;;0.24;93.05;96807.19;105280;1314;29972;-84
2021/11/13 02:44:45;;;;;;;20.00;14.00;;;;;;;0.24;93.14;96806.63;105267;1316;25556;-84
2021/11/13 02:47:17;;;;;;;20.10;14.00;;;;;;;0.27;93.56;96799.77;105292;1314;31146;-86
2021/11/13 02:49:49;;;;;;;26.70;16.50;;;;;;;0.27;93.34;96797.91;105238;1310;28917;-84
2021/11/13 02:52:20;;;;;;;24.60;16.00;;;;;;;0.22;93.33;96795.58;105208;1315;27627;-86
2021/11/13 02:54:52;;;;;;;21.20;14.50;;;;;;;0.28;93.77;96797.71;105273;1310;35622;-86
2021/11/13 02:57:23;;;;;;;22.20;14.80;;;;;;;0.34;93.43;96793.27;105307;1316;26168;-86
2021/11/13 02:59:53;;;;;;;20.80;14.50;;;;;;;0.37;93.43;96788.04;105340;1315;27732;-86
2021/11/13 03:02:24;;;;;;;19.20;13.40;;;;;;;0.39;93.35;96784.61;105380;1316;26289;-86
2021/11/13 03:04:54;;;;;;;23.10;14.50;;;;;;;0.37;93.09;96781.25;105291;1314;25650;-86
2021/11/13 03:07:25;;;;;;;21.00;14.30;;;;;;;0.37;93.54;96774.42;105310;1316;25605;-86
2021/11/13 03:09:56;;;;;;;18.40;13.30;;;;;;;0.40;93.25;96768.11;105220;1316;28562;-86
2021/11/13 03:12:26;;;;;;;23.40;14.60;;;;;;;0.45;93.55;96767.10;105300;1309;29826;-86
2021/11/13 03:14:57;;;;;;;20.70;13.80;;;;;;;0.50;93.39;96763.92;105284;1312;24445;-86
2021/11/13 03:17:28;;;;;;;20.90;14.00;;;;;;;0.55;93.43;96767.09;105268;1312;27843;-86
2021/11/13 03:19:59;;;;;;;19.50;12.70;;;;;;;0.57;93.24;96763.65;105259;1314;24814;-85
2021/11/13 03:22:33;;;;;;;18.20;12.60;;;;;;;0.54;92.93;96768.55;105262;1309;28580;-86
2021/11/13 03:25:04;;;;;;;21.10;12.80;;;;;;;0.47;92.82;96765.07;105217;1316;26705;-86
2021/11/13 03:27:36;;;;;;;18.50;13.70;;;;;;;0.45;93.06;96764.22;105281;1314;25660;-87
2021/11/13 03:30:09;;;;;;;19.30;13.30;;;;;;;0.46;93.09;96769.34;105106;1314;27881;-86
2021/11/13 03:32:40;;;;;;;20.60;13.60;;;;;;;0.47;92.91;96772.38;105250;1310;26739;-86
2021/11/13 03:35:13;;;;;;;19.20;12.90;;;;;;;0.49;93.14;96774.52;105157;1313;26598;-86
2021/11/13 03:37:45;;;;;;;19.10;12.70;;;;;;;0.49;93.05;96781.71;105220;1309;26388;-84
2021/11/13 03:40:15;;;;;;;21.30;14.00;;;;;;;0.47;92.84;96780.40;105197;1314;27011;-84
2021/11/13 03:42:46;;;;;;;21.80;14.00;;;;;;;0.47;92.81;96779.05;105186;1316;23877;-84
2021/11/13 03:45:17;;;;;;;17.20;13.00;;;;;;;0.44;92.76;96781.17;105200;1315;26610;-85
2021/11/13 03:47:47;;;;;;;20.60;13.80;;;;;;;0.39;92.71;96780.60;105297;1310;27444;-84
2021/11/13 03:50:19;;;;;;;22.10;14.00;;;;;;;0.38;92.65;96781.09;105115;1316;26885;-84
2021/11/13 03:52:49;;;;;;;21.20;14.90;;;;;;;0.35;92.78;96783.55;105165;1312;25360;-84
2021/11/13 03:55:21;;;;;;;22.70;14.10;;;;;;;0.30;92.67;96781.19;105128;1315;25944;-84
2021/11/13 03:57:52;;;;;;;20.70;15.50;;;;;;;0.31;92.51;96779.81;105189;1313;25146;-86
2021/11/13 04:00:23;;;;;;;21.30;14.80;;;;;;;0.27;92.53;96775.25;105133;1312;26133;-86
2021/11/13 04:02:54;;;;;;;21.50;15.10;;;;;;;0.18;92.22;96780.51;105250;1310;27876;-86
2021/11/13 04:05:25;;;;;;;23.50;15.30;;;;;;;0.09;92.05;96777.83;105339;1312;27250;-86
2021/11/13 04:07:56;;;;;;;24.50;16.30;;;;;;;0.03;92.39;96778.98;105267;1315;25954;-86
2021/11/13 04:10:27;;;;;;;25.80;15.30;;;;;;;0.02;92.56;96774.23;105338;1309;26215;-86
2021/11/13 04:12:58;;;;;;;23.00;14.90;;;;;;;0.04;92.84;96778.30;105240;1310;27312;-82
2021/11/13 04:15:29;;;;;;;21.40;14.60;;;;;;;0.08;92.95;96773.98;105204;1312;41062;-82
2021/11/13 04:18:00;;;;;;;22.60;14.10;;;;;;;0.11;93.16;96771.88;105134;1312;25649;-84
2021/11/13 04:20:31;;;;;;;24.10;15.20;;;;;;;0.14;92.82;96775.36;105111;1312;26211;-84
2021/11/13 04:23:02;;;;;;;26.60;16.10;;;;;;;0.16;93.11;96776.48;105220;1313;27954;-83
2021/11/13 04:25:32;;;;;;;24.20;14.70;;;;;;;0.16;92.66;96779.77;105263;1310;27023;-83
2021/11/13 04:28:03;;;;;;;22.50;15.60;;;;;;;0.05;92.37;96779.54;105201;1312;29215;-84
2021/11/13 04:30:34;;;;;;;27.20;18.50;;;;;;;-0.04;92.72;96775.84;105270;1314;26979;-84
2021/11/13 04:33:05;;;;;;;29.80;18.20;;;;;;;-0.08;92.32;96773.81;105217;1312;27334;-84
2021/11/13 04:35:46;;;;;;;28.70;18.30;;;;;;;-0.06;92.96;96770.79;105257;1313;25613;-84
2021/11/13 04:38:17;;;;;;;24.80;16.80;;;;;;;0.01;92.96;96775.42;105232;1312;26612;-84
2021/11/13 04:40:48;;;;;;;26.40;17.50;;;;;;;0.06;92.92;96781.17;105258;1309;25207;-84
2021/11/13 04:43:18;;;;;;;24.40;16.40;;;;;;;0.08;93.04;96779.36;105225;1309;26944;-84
2021/11/13 04:45:49;;;;;;;25.20;16.40;;;;;;;0.02;92.66;96782.13;105193;1312;28452;-84
2021/11/13 04:48:20;;;;;;;26.80;16.30;;;;;;;-0.01;92.82;96772.80;105206;1315;25528;-84
2021/11/13 04:50:51;;;;;;;28.40;18.30;;;;;;;0.02;92.93;96780.52;105062;1312;26011;-84
2021/11/13 04:53:21;;;;;;;25.40;16.20;;;;;;;0.07;92.86;96780.33;105255;1313;29664;-84
2021/11/13 04:55:52;;;;;;;24.80;15.40;;;;;;;0.09;92.61;96779.35;105327;1316;26973;-84
2021/11/13 04:58:23;;;;;;;23.00;15.20;;;;;;;0.08;92.50;96778.44;105345;1309;25433;-84
2021/11/13 05:00:54;;;;;;;26.10;17.50;;;;;;;0.07;92.45;96778.56;105288;1316;25541;-84
2021/11/13 05:03:24;;;;;;;27.60;18.00;;;;;;;0.02;92.50;96778.39;105344;1316;26067;-84
2021/11/13 05:05:55;;;;;;;25.50;16.30;;;;;;;0.00;92.90;96777.79;105325;1314;26493;-84
2021/11/13 05:08:26;;;;;;;22.20;14.80;;;;;;;-0.01;92.76;96772.98;105296;1314;26550;-84
2021/11/13 05:10:57;;;;;;;25.00;16.90;;;;;;;-0.03;92.90;96771.65;105327;1316;25358;-84
2021/11/13 05:13:28;;;;;;;22.30;15.70;;;;;;;-0.03;93.28;96768.98;105343;1309;25605;-84
2021/11/13 05:15:58;;;;;;;24.70;16.20;;;;;;;-0.04;93.66;96765.73;105186;1314;26357;-82
2021/11/13 05:18:29;;;;;;;23.30;15.30;;;;;;;-0.09;93.46;96765.92;105216;1314;37799;-83
2021/11/13 05:21:00;;;;;;;22.90;15.20;;;;;;;-0.15;93.64;96759.97;105329;1315;25926;-83
2021/11/13 05:23:30;;;;;;;22.40;16.20;;;;;;;-0.15;94.00;96764.70;105254;1313;24971;-84
2021/11/13 05:26:01;;;;;;;26.50;15.50;;;;;;;-0.08;94.71;96763.52;105316;1315;25118;-84
2021/11/13 05:28:32;;;;;;;23.40;15.40;;;;;;;-0.06;94.36;96758.77;105257;1314;28210;-84
2021/11/13 05:31:03;;;;;;;21.70;14.90;;;;;;;-0.07;94.17;96753.73;105285;1316;25288;-83
2021/11/13 05:33:34;;;;;;;21.70;15.50;;;;;;;-0.12;93.99;96754.42;105151;1316;27607;-84
2021/11/13 05:36:05;;;;;;;23.10;15.20;;;;;;;-0.18;94.04;96751.15;105263;1314;39145;-84
2021/11/13 05:38:36;;;;;;;21.80;14.60;;;;;;;-0.09;94.65;96753.13;105312;1314;25091;-84
2021/11/13 05:41:07;;;;;;;20.10;14.80;;;;;;;0.05;95.12;96751.39;105309;1316;28926;-84
2021/11/13 05:43:37;;;;;;;25.90;15.90;;;;;;;-0.02;94.66;96753.85;105210;1316;25233;-84
2021/11/13 05:46:08;;;;;;;22.40;16.00;;;;;;;-0.03;94.48;96757.42;105210;1309;25095;-84
2021/11/13 05:48:39;;;;;;;22.60;16.50;;;;;;;0.01;94.16;96755.05;105238;1316;29794;-84
2021/11/13 05:51:10;;;;;;;22.50;14.60;;;;;;;0.04;94.37;96756.09;105222;1316;27036;-86
2021/11/13 05:53:40;;;;;;;21.80;14.90;;;;;;;0.06;94.00;96759.48;105276;1313;26931;-85
2021/11/13 05:56:11;;;;;;;19.60;15.10;;;;;;;0.07;93.87;96759.08;105321;1313;25134;-84
2021/11/13 05:58:42;;;;;;;21.50;14.80;;;;;;;0.10;93.62;96763.02;105205;1316;24741;-84
2021/11/13 06:01:12;;;;;;;23.60;14.80;;;;;;;0.12;93.75;96761.69;105207;1312;27442;-85
2021/11/13 06:03:43;;;;;;;25.40;16.10;;;;;;;0.13;93.62;96760.05;105190;1314;44871;-84
2021/11/13 06:06:14;;;;;;;28.10;15.80;;;;;;;0.19;93.66;96762.35;105167;1315;29886;-85
2021/11/13 06:08:45;;;;;;;22.60;14.90;;;;;;;0.24;93.58;96765.00;105152;1317;25706;-85
2021/11/13 06:11:16;;;;;;;23.00;14.60;;;;;;;0.15;93.20;96766.80;105215;1315;25129;-84
2021/11/13 06:13:47;;;;;;;27.10;15.60;;;;;;;-0.03;92.61;96773.20;105247;1314;26050;-84
2021/11/13 06:16:18;;;;;;;28.30;16.30;;;;;;;-0.17;92.73;96773.95;105226;1316;35800;-84
2021/11/13 06:18:49;;;;;;;26.50;16.70;;;;;;;-0.15;92.65;96775.64;105221;1314;25236;-84
2021/11/13 06:21:19;;;;;;;27.30;16.20;;;;;;;-0.07;93.11;96779.90;105229;1314;26444;-85
2021/11/13 06:23:50;;;;;;;24.50;16.50;;;;;;;-0.03;93.04;96785.45;105267;1314;24432;-84
2021/11/13 06:26:21;;;;;;;28.80;17.20;;;;;;;0.06;92.98;96788.64;105245;1315;26775;-85
2021/11/13 06:28:52;;;;;;;28.20;16.20;;;;;;;0.15;92.85;96789.80;105272;1315;25211;-84
2021/11/13 06:31:23;;;;;;;27.10;16.30;;;;;;;0.14;92.35;96789.40;105223;1312;24533;-84
2021/11/13 06:33:54;;;;;;;33.60;17.90;;;;;;;0.11;92.66;96792.86;105222;1316;25233;-84
2021/11/13 06:36:24;;;;;;;26.30;16.50;;;;;;;0.20;92.67;96794.30;105267;1315;24350;-84
2021/11/13 06:38:55;;;;;;;25.00;14.50;;;;;;;0.32;92.89;96794.69;105133;1313;25650;-84
2021/11/13 06:41:29;;;;;;;29.00;17.30;;;;;;;0.31;92.51;96798.05;105190;1315;25432;-84
2021/11/13 06:44:01;;;;;;;23.80;15.10;;;;;;;0.16;92.05;96794.52;105289;1314;26449;-83
2021/11/13 06:46:31;;;;;;;23.70;15.60;;;;;;;0.07;92.14;96791.59;105118;1309;173739;-83
2021/11/13 06:49:02;;;;;;;20.80;13.90;;;;;;;0.07;92.39;96798.58;105186;1315;25898;-84
2021/11/13 06:51:33;;;;;;;26.90;14.00;;;;;;;0.08;92.42;96805.23;105327;1315;25017;-84
2021/11/13 06:54:04;;;;;;;25.50;15.00;;;;;;;0.11;92.64;96801.67;105111;1316;26343;-84
2021/11/13 06:56:35;;;;;;;27.10;16.00;;;;;;;0.22;92.78;96806.16;105173;1316;25741;-83
2021/11/13 06:59:06;;;;;;;26.00;15.50;;;;;;;0.41;93.18;96805.34;105266;1315;25600;-84
2021/11/13 07:01:37;;;;;;;24.80;14.80;;;;;;;0.60;93.23;96809.05;105223;1315;24164;-83
2021/11/13 07:04:08;;;;;;;23.70;14.50;;;;;;;0.74;93.14;96809.69;105277;1316;29337;-84
2021/11/13 07:06:39;;;;;;;18.20;12.30;;;;;;;0.89;93.25;96813.20;105266;1315;24490;-84
2021/11/13 07:09:10;;;;;;;23.10;14.20;;;;;;;1.03;93.08;96811.80;105226;1315;26713;-84
2021/11/13 07:11:43;;;;;;;24.60;15.30;;;;;;;1.15;92.81;96814.33;105242;1316;24100;-84
2021/11/13 07:14:14;;;;;;;21.30;13.30;;;;;;;1.27;92.80;96811.74;105259;1316;29368;-83
2021/11/13 07:16:45;;;;;;;22.20;14.40;;;;;;;1.35;92.66;96813.24;105260;1316;28942;-84
2021/11/13 07:19:16;;;;;;;20.50;13.90;;;;;;;1.43;92.46;96812.66;105241;1316;28422;-84
2021/11/13 07:21:47;;;;;;;23.10;14.00;;;;;;;1.42;92.22;96808.73;105141;1316;30737;-84
2021/11/13 07:24:18;;;;;;;27.10;16.20;;;;;;;1.49;92.06;96806.04;105014;1318;28354;-84
2021/11/13 07:26:52;;;;;;;20.90;14.40;;;;;;;1.69;92.37;96805.48;105162;1316;25177;-84
2021/11/13 07:29:27;;;;;;;23.40;14.40;;;;;;;1.92;92.31;96801.75;105152;1316;34574;-84
2021/11/13 07:31:58;;;;;;;24.30;15.70;;;;;;;2.20;92.34;96798.60;105256;1315;28923;-84
2021/11/13 07:34:29;;;;;;;24.90;15.20;;;;;;;2.59;92.51;96798.70;105274;1315;35038;-83
2021/11/13 07:36:59;;;;;;;21.10;13.10;;;;;;;3.10;92.73;96793.53;105226;1315;29799;-84
2021/11/13 07:39:30;;;;;;;19.80;13.30;;;;;;;3.41;92.06;96793.11;105228;1316;27544;-84
2021/11/13 07:42:01;;;;;;;21.60;14.00;;;;;;;3.40;91.17;96791.39;105132;1318;26931;-84
2021/11/13 07:44:32;;;;;;;21.20;13.10;;;;;;;3.36;90.47;96791.42;105181;1315;26956;-84
2021/11/13 07:47:03;;;;;;;19.00;12.70;;;;;;;3.51;90.61;96786.56;105279;1314;25230;-85
2021/11/13 07:49:34;;;;;;;23.00;13.30;;;;;;;3.68;90.67;96783.04;105193;1316;27838;-85
2021/11/13 07:52:06;;;;;;;21.50;12.80;;;;;;;3.50;89.76;96784.06;105109;1316;26992;-85
2021/11/13 07:54:38;;;;;;;21.90;14.00;;;;;;;3.05;89.19;96786.97;105153;1315;27509;-84
2021/11/13 07:57:09;;;;;;;22.90;15.00;;;;;;;2.61;89.12;96789.07;105265;1316;26857;-85
2021/11/13 07:59:40;;;;;;;23.50;13.60;;;;;;;2.42;89.84;96787.66;105189;1316;25738;-85
2021/11/13 08:02:11;;;;;;;23.70;14.60;;;;;;;2.36;90.27;96789.01;105166;1316;26535;-85
2021/11/13 08:04:42;;;;;;;23.20;14.20;;;;;;;2.30;90.86;96792.14;105261;1315;25909;-85
2021/11/13 08:07:12;;;;;;;27.50;15.30;;;;;;;2.19;90.81;96792.41;105201;1316;26482;-84
2021/11/13 08:09:43;;;;;;;38.50;15.90;;;;;;;2.03;90.97;96789.15;105272;1316;25271;-84
2021/11/13 08:12:15;;;;;;;31.20;16.10;;;;;;;2.01;91.48;96792.08;105023;1313;27818;-84
2021/11/13 08:14:45;;;;;;;29.20;16.80;;;;;;;1.97;91.69;96796.36;105133;1316;27791;-84
2021/11/13 08:17:16;;;;;;;33.40;17.60;;;;;;;2.05;91.98;96794.39;105131;1316;27323;-84
2021/11/13 08:19:47;;;;;;;35.80;17.10;;;;;;;2.26;92.44;96795.86;105168;1315;26453;-84
2021/11/13 08:22:19;;;;;;;32.20;17.40;;;;;;;2.45;92.53;96792.67;105185;1316;26381;-84
2021/11/13 08:24:51;;;;;;;28.70;17.70;;;;;;;2.66;92.69;96794.75;105143;1316;27782;-84
2021/11/13 08:27:22;;;;;;;26.60;16.10;;;;;;;2.98;92.78;96790.41;105181;1316;27733;-84
2021/11/13 08:29:53;;;;;;;27.30;17.40;;;;;;;3.17;92.64;96788.88;105232;1316;24429;-84
2021/11/13 08:32:25;;;;;;;25.20;15.50;;;;;;;3.38;92.53;96785.11;105145;1315;28180;-84
2021/11/13 08:34:55;;;;;;;22.90;15.80;;;;;;;3.53;92.23;96781.77;105248;1314;25287;-84
2021/11/13 08:37:27;;;;;;;22.40;14.70;;;;;;;3.60;91.88;96782.09;105258;1315;26527;-84
2021/11/13 08:39:58;;;;;;;25.30;16.20;;;;;;;3.70;91.74;96782.83;105184;1315;30052;-83
2021/11/13 08:42:29;;;;;;;22.90;16.10;;;;;;;3.76;91.65;96786.20;105168;1314;25166;-82
2021/11/13 08:45:00;;;;;;;27.20;15.80;;;;;;;3.91;91.66;96788.55;105168;1314;35973;-83
2021/11/13 08:47:31;;;;;;;24.10;15.10;;;;;;;3.90;91.29;96791.05;105138;1316;29196;-84
2021/11/13 08:50:02;;;;;;;21.30;14.60;;;;;;;4.06;91.46;96794.86;105051;1318;25300;-83
2021/11/13 08:52:34;;;;;;;22.60;13.90;;;;;;;4.19;91.20;96793.02;105054;1319;36085;-83
2021/11/13 08:55:06;;;;;;;27.60;17.40;;;;;;;4.26;90.81;96794.92;104997;1317;25926;-83
2021/11/13 08:57:36;;;;;;;20.50;14.40;;;;;;;4.32;90.82;96793.77;105172;1316;25452;-83
2021/11/13 09:00:10;;;;;;;25.10;16.20;;;;;;;4.51;90.96;96789.25;105095;1316;26406;-83
2021/11/13 09:02:41;;;;;;;24.10;15.60;;;;;;;4.69;90.97;96793.27;105045;1315;28271;-83
2021/11/13 09:05:12;;;;;;;24.90;15.30;;;;;;;4.91;90.61;96795.20;105147;1315;26274;-83
2021/11/13 09:07:44;;;;;;;24.60;15.30;;;;;;;5.04;90.43;96793.05;105132;1315;25672;-83
2021/11/13 09:10:15;;;;;;;23.30;16.10;;;;;;;5.29;90.56;96788.88;105156;1309;26239;-84
2021/11/13 09:12:46;;;;;;;24.60;16.30;;;;;;;5.37;90.00;96788.22;105215;1312;25680;-83
2021/11/13 09:15:23;;;;;;;23.30;15.30;;;;;;;5.57;89.71;96782.55;105008;1317;27547;-83
2021/11/13 09:17:54;;;;;;;25.30;16.80;;;;;;;5.81;89.76;96779.30;105162;1316;36082;-83
2021/11/13 09:20:27;;;;;;;29.40;18.60;;;;;;;5.90;89.26;96774.38;105219;1316;27169;-83
2021/11/13 09:22:58;;;;;;;28.10;18.00;;;;;;;6.07;88.97;96777.20;105228;1314;27051;-83
2021/11/13 09:25:29;;;;;;;29.10;18.30;;;;;;;6.12;88.39;96769.57;105209;1315;25744;-81
2021/11/13 09:28:01;;;;;;;28.50;18.50;;;;;;;6.28;88.08;96771.64;105177;1316;39464;-82
2021/11/13 09:30:34;;;;;;;35.60;20.50;;;;;;;6.19;87.35;96771.65;105152;1316;26211;-82
2021/11/13 09:33:06;;;;;;;35.50;18.60;;;;;;;6.13;87.36;96768.84;105158;1316;28540;-83
2021/11/13 09:35:38;;;;;;;37.10;22.30;;;;;;;5.98;87.04;96768.34;105270;1314;25415;-83
2021/11/13 09:38:09;;;;;;;33.00;19.40;;;;;;;5.78;86.68;96772.13;105177;1315;25590;-82
2021/11/13 09:40:41;;;;;;;34.40;22.20;;;;;;;5.53;86.44;96768.30;105092;1316;24073;-83
2021/11/13 09:43:12;;;;;;;31.10;20.20;;;;;;;5.60;87.45;96760.56;105160;1312;24401;-82
2021/11/13 09:45:42;;;;;;;34.40;20.00;;;;;;;5.71;87.28;96765.65;105010;1317;24976;-83
2021/11/13 09:48:15;;;;;;;34.80;20.90;;;;;;;5.44;86.58;96760.87;105135;1310;27736;-83
2021/11/13 09:50:50;;;;;;;30.20;20.80;;;;;;;5.11;86.55;96761.89;105090;1314;28302;-83
2021/11/13 09:53:26;;;;;;;32.70;19.80;;;;;;;4.78;86.83;96762.48;105149;1316;24968;-83
2021/11/13 09:56:00;;;;;;;30.10;19.10;;;;;;;4.87;87.76;96756.84;105124;1316;26293;-83
2021/11/13 09:58:31;;;;;;;34.60;22.20;;;;;;;4.96;87.84;96754.75;105226;1313;24211;-83
2021/11/13 10:01:02;;;;;;;44.00;24.00;;;;;;;5.00;88.06;96748.95;105124;1312;25451;-82
2021/11/13 10:03:33;;;;;;;37.30;23.20;;;;;;;5.09;87.93;96751.41;105101;1315;26228;-84
2021/11/13 10:06:09;;;;;;;38.80;24.20;;;;;;;4.88;87.52;96752.87;105174;1312;26751;-83
2021/11/13 10:08:40;;;;;;;43.80;25.30;;;;;;;4.79;87.87;96754.20;105140;1313;27113;-83
2021/11/13 10:11:16;;;;;;;45.70;25.80;;;;;;;4.72;87.76;96757.91;105272;1310;26986;-84
2021/11/13 10:13:51;;;;;;;40.90;24.80;;;;;;;4.57;87.67;96764.10;105117;1313;26780;-83
2021/11/13 10:16:32;;;;;;;48.30;28.90;;;;;;;4.40;87.79;96762.27;105207;1310;27287;-83
2021/11/13 10:19:08;;;;;;;43.80;26.60;;;;;;;4.34;88.36;96759.05;105193;1316;34530;-83
2021/11/13 10:21:42;;;;;;;39.30;25.10;;;;;;;4.38;88.62;96755.00;105128;1314;28348;-84
2021/11/13 10:24:17;;;;;;;43.90;25.80;;;;;;;4.35;88.81;96752.64;105084;1312;37051;-83
2021/11/13 10:26:50;;;;;;;45.60;26.10;;;;;;;4.59;89.47;96747.85;105089;1312;24956;-84
2021/11/13 10:29:24;;;;;;;42.40;26.10;;;;;;;4.87;89.67;96741.55;105015;1312;26836;-83
2021/11/13 10:31:57;;;;;;;45.60;25.80;;;;;;;5.04;89.27;96739.39;105122;1312;26730;-83
2021/11/13 10:34:32;;;;;;;45.50;26.00;;;;;;;5.18;89.13;96733.58;105116;1312;25821;-83
2021/11/13 10:37:05;;;;;;;43.10;24.60;;;;;;;5.20;88.81;96729.81;105228;1312;26002;-83
2021/11/13 10:39:38;;;;;;;47.20;27.60;;;;;;;5.22;88.51;96726.80;105165;1314;25446;-82
2021/11/13 10:42:12;;;;;;;41.40;25.00;;;;;;;5.14;88.30;96724.99;105244;1314;27366;-82
2021/11/13 10:44:48;;;;;;;43.10;25.70;;;;;;;5.11;88.31;96724.16;105236;1315;29915;-83
2021/11/13 10:47:22;;;;;;;41.40;24.30;;;;;;;5.10;88.16;96721.95;105148;1315;27821;-83
2021/11/13 10:49:54;;;;;;;42.70;25.70;;;;;;;5.14;88.33;96716.70;105175;1312;28153;-83
2021/11/13 10:52:25;;;;;;;40.80;24.90;;;;;;;5.31;88.44;96715.46;105265;1309;29839;-84
2021/11/13 10:54:56;;;;;;;42.20;25.00;;;;;;;5.38;88.35;96718.25;105284;1315;27465;-83
2021/11/13 10:57:30;;;;;;;44.30;25.90;;;;;;;5.21;87.71;96710.29;105171;1313;43893;-83
2021/11/13 11:00:16;;;;;;;40.90;26.00;;;;;;;5.02;87.84;96709.48;105146;1314;26596;-83
2021/11/13 11:03:05;;;;;;;40.60;25.70;;;;;;;5.03;88.18;96706.08;105298;1313;27072;-84
2021/11/13 11:05:48;;;;;;;44.10;25.70;;;;;;;5.25;88.59;96704.87;105318;1309;26910;-83
2021/11/13 11:08:34;;;;;;;48.20;25.30;;;;;;;5.47;88.81;96705.59;105224;1314;28937;-83
2021/11/13 11:11:26;;;;;;;81.90;30.30;;;;;;;5.62;88.60;96705.05;105186;1316;29140;-83
2021/11/13 11:13:59;;;;;;;44.10;26.60;;;;;;;5.81;88.46;96697.61;105281;1309;34588;-84
2021/11/13 11:16:33;;;;;;;50.60;28.00;;;;;;;5.88;88.13;96698.84;105226;1310;25515;-84
2021/11/13 11:19:09;;;;;;;44.30;26.40;;;;;;;5.83;87.48;96693.73;105288;1313;25657;-84
2021/11/13 11:21:48;;;;;;;43.50;26.50;;;;;;;5.69;87.18;96687.89;105195;1309;27781;-83
2021/11/13 11:24:22;;;;;;;40.50;24.60;;;;;;;5.65;87.36;96685.21;105246;1309;25475;-84
2021/11/13 11:27:01;;;;;;;40.70;24.90;;;;;;;5.70;87.54;96684.53;105406;1309;25733;-84
2021/11/13 11:29:34;;;;;;;40.50;26.00;;;;;;;5.70;87.28;96682.74;105197;1313;28147;-84
2021/11/13 11:32:09;;;;;;;43.30;27.20;;;;;;;5.73;87.39;96684.45;105230;1310;31491;-83
2021/11/13 11:34:42;;;;;;;48.60;27.70;;;;;;;5.79;87.44;96684.74;105217;1314;35444;-83
2021/11/13 11:37:18;;;;;;;45.20;28.90;;;;;;;5.63;87.26;96682.80;105156;1315;26313;-83